Time;durP1;ratioP1;P1;durP2;ratioP2;P2;SDS_P1;SDS_P2;PMS_P1;PMS_P2;Temp;Humidity;BMP_temperature;BMP_pressure;BME280_temperature;BME280_humidity;BME280_pressure;Samples;Min_cycle;Max_cycle;Signal;HPM_P1;HPM_P2
2023/03/24 00:00:33;;;;;;;4.95;1.95;;;24.10;99.90;;;;;;5028399;28;20243;-79
2023/03/24 00:03:04;;;;;;;3.35;1.75;;;24.10;99.90;;;;;;5031019;28;20511;-79
2023/03/24 00:05:36;;;;;;;4.32;2.00;;;24.00;99.90;;;;;;5030512;28;20215;-80
2023/03/24 00:08:09;;;;;;;2.97;1.80;;;23.90;99.90;;;;;;5024873;28;20600;-79
2023/03/24 00:10:41;;;;;;;3.90;2.22;;;24.00;99.90;;;;;;5028157;28;20225;-80
2023/03/24 00:13:15;;;;;;;5.88;2.42;;;24.10;99.90;;;;;;5031675;28;20263;-79
2023/03/24 00:15:47;;;;;;;2.97;1.70;;;24.30;99.90;;;;;;5031700;28;20197;-80
2023/03/24 00:18:21;;;;;;;6.07;2.58;;;24.30;99.90;;;;;;5012279;28;20198;-81
2023/03/24 00:20:57;;;;;;;5.97;2.30;;;24.30;99.90;;;;;;5029428;28;20287;-80
2023/03/24 00:23:31;;;;;;;7.35;2.70;;;24.30;99.90;;;;;;5031604;28;20608;-79
2023/03/24 00:26:07;;;;;;;7.78;2.65;;;24.20;99.90;;;;;;5031999;28;20271;-81
2023/03/24 00:28:41;;;;;;;6.05;2.65;;;24.30;99.90;;;;;;5050363;28;20265;-80
2023/03/24 00:31:15;;;;;;;7.00;2.50;;;24.30;99.90;;;;;;5031310;28;20263;-81
2023/03/24 00:33:49;;;;;;;5.30;2.28;;;24.50;99.90;;;;;;5031855;28;20197;-81
2023/03/24 00:36:22;;;;;;;5.57;2.33;;;24.50;99.90;;;;;;5031019;28;20193;-80
2023/03/24 00:38:58;;;;;;;8.70;2.67;;;24.70;99.90;;;;;;5025402;28;20197;-81
2023/03/24 00:41:30;;;;;;;9.05;2.80;;;24.90;99.90;;;;;;5031448;28;20287;-79
2023/03/24 00:44:04;;;;;;;7.50;2.55;;;25.00;99.90;;;;;;5032358;28;20189;-81
2023/03/24 00:46:37;;;;;;;7.20;2.47;;;25.00;99.90;;;;;;5029547;28;20208;-80
2023/03/24 00:49:10;;;;;;;8.52;2.60;;;24.90;99.90;;;;;;5020543;28;20300;-81
2023/03/24 00:51:44;;;;;;;6.88;2.55;;;24.90;99.90;;;;;;5028046;28;20232;-81
2023/03/24 00:54:20;;;;;;;6.97;2.38;;;25.00;99.90;;;;;;5030099;28;20266;-79
2023/03/24 00:56:54;;;;;;;5.05;2.35;;;25.10;99.90;;;;;;5030228;28;20189;-80
2023/03/24 00:59:28;;;;;;;9.10;2.50;;;25.10;99.90;;;;;;5029256;28;20228;-81
2023/03/24 01:01:59;;;;;;;4.70;2.20;;;25.10;99.90;;;;;;5030703;28;20591;-80
2023/03/24 01:04:31;;;;;;;5.78;2.30;;;25.10;99.90;;;;;;5025366;28;20652;-79
2023/03/24 01:07:02;;;;;;;6.50;2.13;;;25.10;99.90;;;;;;5028727;28;20261;-81
2023/03/24 01:09:35;;;;;;;7.18;2.50;;;25.10;99.90;;;;;;5030983;28;20687;-78
2023/03/24 01:12:07;;;;;;;3.30;2.10;;;25.10;99.90;;;;;;5031428;28;20236;-80
2023/03/24 01:14:40;;;;;;;6.10;2.22;;;25.00;99.90;;;;;;5030517;28;20248;-80
2023/03/24 01:17:11;;;;;;;5.82;2.30;;;25.00;99.90;;;;;;5031837;28;20608;-81
2023/03/24 01:19:43;;;;;;;6.15;2.42;;;25.00;99.90;;;;;;5030400;28;20197;-79
2023/03/24 01:22:14;;;;;;;6.65;2.47;;;25.00;99.90;;;;;;5030923;28;20197;-80
2023/03/24 01:24:45;;;;;;;4.80;2.10;;;24.90;99.90;;;;;;5023939;28;20198;-80
2023/03/24 01:27:17;;;;;;;6.25;2.30;;;24.90;99.90;;;;;;5025475;28;20327;-80
2023/03/24 01:29:50;;;;;;;6.70;2.58;;;24.90;99.90;;;;;;5040902;28;20216;-80
2023/03/24 01:32:21;;;;;;;7.22;2.80;;;25.10;99.90;;;;;;5029067;28;21654;-80
2023/03/24 01:34:52;;;;;;;10.10;2.70;;;25.20;99.90;;;;;;5020571;28;20189;-80
2023/03/24 01:37:24;;;;;;;5.25;2.63;;;25.20;99.90;;;;;;5028312;28;20202;-79
2023/03/24 01:39:55;;;;;;;4.97;2.33;;;25.20;99.90;;;;;;5020835;28;20222;-79
2023/03/24 01:42:28;;;;;;;8.05;2.67;;;25.20;99.90;;;;;;5012247;28;20206;-82
2023/03/24 01:45:24;;;;;;;4.03;2.22;;;25.30;99.90;;;;;;5028826;28;20280;-79
2023/03/24 01:47:55;;;;;;;5.90;2.35;;;25.30;99.90;;;;;;5027804;28;20237;-79
2023/03/24 01:50:27;;;;;;;4.55;2.03;;;25.40;99.90;;;;;;5029388;28;20236;-80
2023/03/24 01:52:59;;;;;;;6.35;2.90;;;25.40;99.90;;;;;;5030876;28;20201;-81
2023/03/24 01:55:32;;;;;;;3.20;1.85;;;25.60;99.90;;;;;;5029679;28;20193;-80
2023/03/24 01:58:06;;;;;;;5.43;2.00;;;25.60;99.90;;;;;;5033224;28;20189;-79
2023/03/24 02:00:40;;;;;;;5.60;2.17;;;25.60;99.90;;;;;;5030287;28;20257;-80
2023/03/24 02:03:16;;;;;;;6.10;2.10;;;25.50;99.90;;;;;;5033406;28;20699;-80
2023/03/24 02:05:48;;;;;;;6.70;2.20;;;25.40;99.90;;;;;;5030962;28;20224;-79
2023/03/24 02:08:24;;;;;;;4.70;1.92;;;25.50;99.90;;;;;;5035458;28;20280;-79
2023/03/24 02:10:57;;;;;;;5.20;2.22;;;25.60;99.90;;;;;;5031659;28;20306;-81
2023/03/24 02:13:31;;;;;;;3.58;1.83;;;25.70;99.90;;;;;;5034763;28;20201;-78
2023/03/24 02:16:15;;;;;;;4.13;2.05;;;25.80;99.90;;;;;;5034093;28;20203;-79
2023/03/24 02:18:55;;;;;;;5.85;2.55;;;25.80;99.90;;;;;;5034789;28;20224;-78
2023/03/24 02:21:55;;;;;;;5.05;2.20;;;25.60;99.90;;;;;;5031738;28;20205;-80
2023/03/24 02:25:01;;;;;;;6.68;2.22;;;25.60;99.90;;;;;;5010624;28;20223;-80
2023/03/24 02:28:05;;;;;;;5.15;2.20;;;25.30;99.90;;;;;;4996718;28;20204;-79
2023/03/24 02:31:07;;;;;;;4.93;2.30;;;25.40;99.90;;;;;;5011646;28;20225;-79
2023/03/24 02:34:13;;;;;;;6.93;2.00;;;25.50;99.90;;;;;;5004898;28;20201;-79
2023/03/24 02:37:26;;;;;;;5.32;1.90;;;25.50;99.90;;;;;;5034837;28;20193;-80
2023/03/24 02:40:23;;;;;;;4.95;2.00;;;25.40;99.90;;;;;;5000210;28;20213;-80
2023/03/24 02:43:08;;;;;;;7.45;2.28;;;25.40;99.90;;;;;;5030528;28;20204;-80
2023/03/24 02:45:42;;;;;;;8.32;2.55;;;25.30;99.90;;;;;;5024025;28;20193;-79
2023/03/24 02:51:19;;;;;;;3.63;2.30;;;25.20;99.90;;;;;;5036332;28;20264;-80
2023/03/24 02:54:00;;;;;;;7.85;2.53;;;25.10;99.90;;;;;;5034617;28;20280;-80
2023/03/24 02:56:40;;;;;;;7.13;2.78;;;25.10;99.90;;;;;;5017698;28;20593;-79
2023/03/24 02:59:15;;;;;;;6.43;2.53;;;25.10;99.90;;;;;;5014966;28;20233;-79
2023/03/24 03:01:53;;;;;;;6.07;2.13;;;25.10;99.90;;;;;;5014553;28;20801;-80
2023/03/24 03:04:28;;;;;;;3.95;1.70;;;25.10;99.90;;;;;;5034162;28;20197;-79
2023/03/24 03:07:05;;;;;;;6.28;2.25;;;25.10;99.90;;;;;;5032852;28;20242;-79
2023/03/24 03:09:39;;;;;;;6.18;2.00;;;25.00;99.90;;;;;;5035514;28;20678;-79
2023/03/24 03:12:14;;;;;;;4.47;1.88;;;25.20;99.90;;;;;;5032946;28;20312;-80
2023/03/24 03:14:50;;;;;;;3.08;1.85;;;25.30;99.90;;;;;;5034962;28;20197;-80
2023/03/24 03:17:29;;;;;;;3.78;2.03;;;25.30;99.90;;;;;;5033974;28;20203;-79
2023/03/24 03:20:07;;;;;;;7.55;2.10;;;25.30;99.90;;;;;;5018528;28;20197;-79
2023/03/24 03:22:44;;;;;;;4.32;1.88;;;25.50;99.90;;;;;;5035871;28;20201;-80
2023/03/24 03:25:17;;;;;;;4.97;1.95;;;25.50;99.90;;;;;;5040473;28;20199;-79
2023/03/24 03:27:52;;;;;;;5.85;2.25;;;25.70;99.90;;;;;;5051073;28;20205;-79
2023/03/24 03:30:28;;;;;;;6.00;1.98;;;25.60;99.90;;;;;;5035405;28;20201;-78
2023/03/24 03:33:03;;;;;;;5.88;1.98;;;25.50;99.90;;;;;;5033545;28;20229;-79
2023/03/24 03:35:38;;;;;;;3.58;1.50;;;25.60;99.90;;;;;;5034472;28;20201;-78
2023/03/24 03:38:16;;;;;;;2.97;1.60;;;25.70;99.90;;;;;;5050428;28;20207;-79
2023/03/24 03:40:53;;;;;;;5.05;1.85;;;25.80;99.90;;;;;;5038521;28;20201;-79
2023/03/24 03:43:30;;;;;;;5.10;1.90;;;25.80;99.90;;;;;;5035303;28;20579;-79
2023/03/24 03:46:02;;;;;;;5.70;1.63;;;25.70;99.90;;;;;;5035652;28;20197;-79
2023/03/24 03:48:33;;;;;;;4.07;1.58;;;25.70;99.90;;;;;;5037367;28;20207;-80
2023/03/24 03:51:04;;;;;;;4.05;1.65;;;25.60;99.90;;;;;;5033469;28;20546;-80
2023/03/24 03:53:45;;;;;;;3.20;1.48;;;25.50;99.90;;;;;;5037856;28;20681;-79
2023/03/24 03:56:18;;;;;;;3.85;1.80;;;25.40;99.90;;;;;;5038996;28;20203;-78
2023/03/24 03:58:52;;;;;;;5.45;1.65;;;25.40;99.90;;;;;;5025313;28;20943;-78
2023/03/24 04:01:26;;;;;;;4.00;1.63;;;25.40;99.90;;;;;;5035492;28;20265;-78
2023/03/24 04:04:25;;;;;;;3.53;1.70;;;25.40;99.90;;;;;;5032609;28;20695;-78
2023/03/24 04:07:06;;;;;;;4.68;1.65;;;25.30;99.90;;;;;;5026010;28;20260;-78
2023/03/24 04:09:48;;;;;;;6.05;1.58;;;25.30;99.90;;;;;;5033105;28;20201;-77
2023/03/24 04:12:37;;;;;;;5.47;1.35;;;25.30;99.90;;;;;;5028813;28;20252;-77
2023/03/24 04:15:36;;;;;;;6.03;1.48;;;25.40;99.90;;;;;;5030654;28;20212;-77
2023/03/24 04:18:28;;;;;;;3.72;1.50;;;25.40;99.90;;;;;;5028640;28;20201;-78
2023/03/24 04:21:11;;;;;;;3.85;1.10;;;25.30;99.90;;;;;;5034506;28;20204;-78
2023/03/24 04:23:53;;;;;;;4.72;1.42;;;25.30;99.90;;;;;;5032986;28;20236;-78
2023/03/24 04:26:33;;;;;;;3.75;1.50;;;25.20;99.90;;;;;;5030299;28;20205;-77
2023/03/24 04:29:18;;;;;;;5.57;1.50;;;25.20;99.90;;;;;;5030443;28;20204;-78
2023/03/24 04:32:03;;;;;;;4.38;1.48;;;25.20;99.90;;;;;;5030244;28;20225;-78
2023/03/24 04:34:40;;;;;;;3.08;1.15;;;25.20;99.90;;;;;;5030580;28;20280;-79
2023/03/24 04:37:16;;;;;;;4.38;1.20;;;25.20;99.90;;;;;;5029585;28;20219;-78
2023/03/24 04:39:52;;;;;;;4.03;1.50;;;25.10;99.90;;;;;;5029603;28;20322;-78
2023/03/24 04:42:28;;;;;;;5.95;1.40;;;25.10;99.90;;;;;;5026893;28;20201;-77
2023/03/24 04:45:01;;;;;;;4.88;1.45;;;25.10;99.90;;;;;;5028053;28;20200;-78
2023/03/24 04:47:41;;;;;;;2.90;1.30;;;25.10;99.90;;;;;;5024876;28;20572;-78
2023/03/24 04:50:14;;;;;;;3.47;1.42;;;25.10;99.90;;;;;;5026096;28;20202;-79
2023/03/24 04:52:46;;;;;;;3.97;1.35;;;25.10;99.90;;;;;;5033086;28;20220;-79
2023/03/24 04:55:47;;;;;;;3.10;1.30;;;25.20;99.90;;;;;;5034104;28;20208;-78
2023/03/24 04:58:18;;;;;;;6.15;1.50;;;25.20;99.90;;;;;;5027892;28;20197;-80
2023/03/24 05:00:50;;;;;;;4.40;1.40;;;25.20;99.90;;;;;;5030898;28;20193;-79
2023/03/24 05:03:28;;;;;;;5.25;1.65;;;25.30;99.90;;;;;;5027278;28;20216;-78
2023/03/24 05:06:00;;;;;;;4.28;1.50;;;25.30;99.90;;;;;;5028741;28;20189;-79
2023/03/24 05:08:32;;;;;;;2.97;1.50;;;25.40;99.90;;;;;;5037860;28;20213;-79
2023/03/24 05:11:03;;;;;;;7.78;1.75;;;25.50;99.90;;;;;;5028592;28;20608;-78
2023/03/24 05:13:35;;;;;;;7.70;1.77;;;25.60;99.90;;;;;;5027124;28;20224;-76
2023/03/24 05:16:06;;;;;;;4.72;1.20;;;25.80;99.90;;;;;;5027343;28;20216;-78
2023/03/24 05:18:39;;;;;;;4.82;1.40;;;25.80;99.90;;;;;;5030977;28;20205;-79
2023/03/24 05:21:10;;;;;;;4.85;1.40;;;25.80;99.90;;;;;;5030533;28;20197;-79
2023/03/24 05:23:42;;;;;;;5.13;1.50;;;25.70;99.90;;;;;;5029335;28;20197;-79
2023/03/24 05:26:14;;;;;;;4.78;1.60;;;25.60;99.90;;;;;;5028836;28;20193;-80
2023/03/24 05:28:45;;;;;;;4.38;1.50;;;25.70;99.90;;;;;;5019920;28;20206;-78
2023/03/24 05:31:16;;;;;;;2.65;1.20;;;25.80;99.90;;;;;;5029678;28;20679;-78
2023/03/24 05:33:52;;;;;;;5.45;1.42;;;26.00;99.90;;;;;;5027677;28;20197;-78
2023/03/24 05:36:23;;;;;;;5.72;1.42;;;26.20;99.90;;;;;;5025569;28;20208;-78
2023/03/24 05:38:55;;;;;;;6.13;1.48;;;26.30;99.90;;;;;;5029537;28;20204;-79
2023/03/24 05:41:27;;;;;;;3.90;1.42;;;26.50;99.90;;;;;;5020986;28;20201;-78
2023/03/24 05:43:58;;;;;;;2.58;1.42;;;26.60;99.90;;;;;;5028899;28;20189;-77
2023/03/24 05:46:32;;;;;;;3.25;1.40;;;26.70;99.90;;;;;;5025412;28;20627;-78
2023/03/24 05:49:05;;;;;;;3.65;1.20;;;26.80;99.90;;;;;;5018991;28;20198;-78
2023/03/24 05:51:36;;;;;;;4.97;1.65;;;26.80;99.90;;;;;;5026549;28;20193;-78
2023/03/24 05:54:07;;;;;;;5.25;1.30;;;26.90;99.90;;;;;;5027179;28;20220;-78
2023/03/24 05:56:38;;;;;;;3.35;1.25;;;27.00;99.90;;;;;;5021048;28;20201;-78
2023/03/24 05:59:10;;;;;;;4.25;1.30;;;27.10;99.90;;;;;;5028870;28;20200;-78
2023/03/24 06:01:41;;;;;;;2.75;1.30;;;27.10;99.90;;;;;;5026054;28;20320;-78
2023/03/24 06:04:17;;;;;;;2.55;1.00;;;27.10;99.90;;;;;;5028876;28;20224;-77
2023/03/24 06:06:48;;;;;;;3.63;1.10;;;27.10;99.90;;;;;;5028852;28;20228;-79
2023/03/24 06:09:19;;;;;;;4.07;1.15;;;27.00;99.90;;;;;;5029177;28;20216;-78
2023/03/24 06:11:53;;;;;;;3.22;1.00;;;26.90;99.90;;;;;;5027911;28;20228;-77
2023/03/24 06:14:24;;;;;;;5.38;1.23;;;26.70;99.90;;;;;;5027445;28;20193;-78
2023/03/24 06:16:58;;;;;;;4.78;1.20;;;26.50;99.90;;;;;;5021400;28;20202;-78
2023/03/24 06:19:31;;;;;;;4.75;1.20;;;26.40;99.90;;;;;;5027177;28;20224;-78
2023/03/24 06:22:02;;;;;;;3.50;1.20;;;26.60;99.90;;;;;;5026480;28;20197;-77
2023/03/24 06:24:33;;;;;;;5.68;1.50;;;26.70;99.90;;;;;;5029233;28;20198;-78
2023/03/24 06:27:07;;;;;;;2.95;1.00;;;26.40;99.90;;;;;;5024629;28;20202;-78
2023/03/24 06:29:41;;;;;;;2.28;1.10;;;26.30;99.90;;;;;;5026329;28;20573;-77
2023/03/24 06:32:12;;;;;;;4.30;1.20;;;26.20;99.90;;;;;;5029398;28;20307;-78
2023/03/24 06:34:45;;;;;;;2.67;1.10;;;26.50;99.90;;;;;;5029763;28;20197;-78
2023/03/24 06:37:16;;;;;;;2.83;1.02;;;26.80;99.90;;;;;;5030216;28;20208;-78
2023/03/24 06:39:48;;;;;;;5.22;1.48;;;27.20;99.90;;;;;;5030333;28;20205;-78
2023/03/24 06:42:22;;;;;;;4.60;1.20;;;27.50;99.90;;;;;;5027686;28;20213;-78
2023/03/24 06:44:57;;;;;;;5.15;1.20;;;27.80;99.90;;;;;;5022130;28;20197;-79
2023/03/24 06:47:28;;;;;;;2.90;1.20;;;28.10;99.90;;;;;;5029673;28;20249;-79
2023/03/24 06:50:01;;;;;;;2.92;1.50;;;28.30;99.90;;;;;;5012265;28;20289;-79
2023/03/24 06:52:33;;;;;;;2.08;1.13;;;28.60;99.90;;;;;;5029167;28;20278;-77
2023/03/24 06:55:04;;;;;;;3.38;1.40;;;28.70;99.90;;;;;;5031889;28;20208;-78
2023/03/24 06:57:35;;;;;;;3.35;1.40;;;28.80;99.90;;;;;;5032465;28;20197;-79
2023/03/24 07:00:07;;;;;;;2.60;1.27;;;28.90;99.90;;;;;;5032706;28;20209;-78
2023/03/24 07:02:39;;;;;;;2.25;1.05;;;28.90;99.90;;;;;;5032741;28;20649;-78
2023/03/24 07:05:13;;;;;;;3.65;1.13;;;28.90;99.90;;;;;;5019993;28;20249;-78
2023/03/24 07:07:44;;;;;;;2.38;1.27;;;28.80;99.90;;;;;;5009835;28;20721;-78
2023/03/24 07:10:17;;;;;;;3.42;1.17;;;28.70;99.90;;;;;;5013694;28;20208;-79
2023/03/24 07:12:48;;;;;;;5.68;1.45;;;28.40;99.90;;;;;;5010445;28;20670;-79
2023/03/24 07:15:19;;;;;;;4.90;1.30;;;28.20;99.90;;;;;;5013084;28;20658;-79
2023/03/24 07:17:50;;;;;;;2.17;1.30;;;28.00;99.90;;;;;;5014400;28;20202;-79
2023/03/24 07:20:23;;;;;;;3.53;1.10;;;27.70;99.90;;;;;;5013846;28;20202;-78
2023/03/24 07:22:57;;;;;;;4.28;1.27;;;27.50;99.90;;;;;;5013136;28;20217;-78
2023/03/24 07:25:29;;;;;;;3.63;1.30;;;27.30;99.90;;;;;;5013526;28;20238;-78
2023/03/24 07:28:00;;;;;;;3.67;1.30;;;27.10;99.90;;;;;;5013701;28;20213;-79
2023/03/24 07:30:31;;;;;;;3.13;1.50;;;26.80;99.90;;;;;;5013189;28;20194;-78
2023/03/24 07:33:03;;;;;;;5.60;1.52;;;26.60;99.90;;;;;;5013068;28;20230;-78
2023/03/24 07:35:36;;;;;;;4.05;1.55;;;26.20;99.90;;;;;;5019781;28;20217;-78
2023/03/24 07:38:07;;;;;;;2.83;1.30;;;26.00;99.90;;;;;;5010678;28;20561;-79
2023/03/24 07:40:38;;;;;;;2.95;1.35;;;25.80;99.90;;;;;;5011077;28;20236;-79
2023/03/24 07:43:09;;;;;;;4.65;1.38;;;25.60;99.90;;;;;;5008599;28;20197;-79
2023/03/24 07:45:40;;;;;;;2.28;1.38;;;25.50;99.90;;;;;;5012246;28;20321;-80
2023/03/24 07:48:11;;;;;;;3.65;1.40;;;25.40;99.90;;;;;;5011223;28;20717;-79
2023/03/24 07:50:48;;;;;;;4.93;1.70;;;25.30;99.90;;;;;;5011126;28;20201;-78
2023/03/24 07:53:22;;;;;;;5.25;2.08;;;25.20;99.90;;;;;;5011461;28;20232;-79
2023/03/24 07:55:55;;;;;;;5.60;1.60;;;25.10;99.90;;;;;;5005166;28;20630;-79
2023/03/24 07:58:26;;;;;;;5.28;1.67;;;25.00;99.90;;;;;;5009086;28;20198;-79
2023/03/24 08:00:57;;;;;;;5.25;1.65;;;24.90;99.90;;;;;;5004472;28;20720;-80
2023/03/24 08:03:31;;;;;;;4.68;1.40;;;24.80;99.90;;;;;;5009321;28;20202;-79
2023/03/24 08:06:04;;;;;;;4.97;1.63;;;24.80;99.90;;;;;;5008601;28;20202;-80
2023/03/24 08:08:35;;;;;;;4.38;1.63;;;24.70;99.90;;;;;;5033524;28;20196;-79
2023/03/24 08:11:06;;;;;;;3.45;1.33;;;24.70;99.90;;;;;;5035045;28;20204;-79
2023/03/24 08:13:38;;;;;;;4.03;1.35;;;24.60;99.90;;;;;;5011531;28;20598;-79
2023/03/24 08:16:09;;;;;;;4.93;1.60;;;24.50;99.90;;;;;;5019247;28;20193;-78
2023/03/24 08:18:40;;;;;;;5.78;1.60;;;24.50;99.90;;;;;;5031666;28;20691;-79
2023/03/24 08:21:14;;;;;;;5.78;1.70;;;24.50;99.90;;;;;;5030574;28;20220;-79
2023/03/24 08:23:45;;;;;;;3.60;1.85;;;24.50;99.90;;;;;;5029960;28;20672;-80
2023/03/24 08:26:17;;;;;;;3.55;2.05;;;24.40;99.90;;;;;;5031951;28;20208;-79
2023/03/24 08:28:48;;;;;;;5.88;2.33;;;24.40;99.90;;;;;;5031024;28;20205;-80
2023/03/24 08:31:19;;;;;;;4.90;2.30;;;24.30;99.90;;;;;;5030212;28;20205;-79
2023/03/24 08:33:50;;;;;;;5.05;2.55;;;24.40;99.90;;;;;;5028822;28;20762;-80
2023/03/24 08:36:25;;;;;;;5.65;2.63;;;24.30;99.90;;;;;;5031906;28;20251;-79
2023/03/24 08:38:57;;;;;;;4.43;2.08;;;24.30;99.90;;;;;;5022865;28;20203;-79
2023/03/24 08:41:33;;;;;;;4.07;1.52;;;24.30;99.90;;;;;;5030262;28;20576;-80
2023/03/24 08:44:06;;;;;;;5.57;1.98;;;24.30;99.90;;;;;;5029348;28;20731;-79
2023/03/24 08:46:37;;;;;;;5.50;1.85;;;24.30;99.90;;;;;;5030115;28;20233;-79
2023/03/24 08:49:08;;;;;;;5.25;1.90;;;24.20;99.90;;;;;;5026853;28;20644;-80
2023/03/24 08:51:41;;;;;;;5.20;1.95;;;24.20;99.90;;;;;;5030793;28;20277;-80
2023/03/24 08:54:13;;;;;;;4.88;2.10;;;24.10;99.90;;;;;;5029834;28;20247;-79
2023/03/24 08:56:44;;;;;;;5.65;1.63;;;24.20;99.90;;;;;;5030522;28;20197;-80
2023/03/24 08:59:15;;;;;;;3.72;1.70;;;24.10;99.90;;;;;;5036521;28;20273;-79
2023/03/24 09:01:47;;;;;;;4.47;1.90;;;24.10;99.90;;;;;;5039623;28;20200;-80
2023/03/24 09:04:18;;;;;;;5.35;2.22;;;24.10;99.90;;;;;;5035391;28;20213;-78
2023/03/24 09:06:52;;;;;;;6.53;2.30;;;24.20;99.90;;;;;;5030891;28;20312;-80
2023/03/24 09:09:24;;;;;;;5.47;2.28;;;24.10;99.90;;;;;;5025936;28;20256;-80
2023/03/24 09:11:55;;;;;;;5.45;2.13;;;24.10;99.90;;;;;;5029094;28;20197;-81
2023/03/24 09:14:27;;;;;;;5.68;2.40;;;24.10;99.90;;;;;;5021290;28;20233;-80
2023/03/24 09:16:58;;;;;;;4.93;2.28;;;24.00;99.90;;;;;;5030166;28;20201;-80
2023/03/24 09:19:30;;;;;;;7.07;2.60;;;24.10;99.90;;;;;;5030411;28;20255;-81
2023/03/24 09:22:04;;;;;;;6.15;2.90;;;24.10;99.90;;;;;;5030297;28;20216;-80
2023/03/24 09:24:35;;;;;;;7.15;2.78;;;24.00;99.90;;;;;;5029166;28;20197;-80
2023/03/24 09:27:06;;;;;;;5.90;2.40;;;24.10;99.90;;;;;;5030034;28;20189;-80
2023/03/24 09:29:37;;;;;;;6.18;2.30;;;24.00;99.90;;;;;;5021050;28;20200;-80
2023/03/24 09:32:08;;;;;;;4.57;2.50;;;24.00;99.90;;;;;;5029576;28;20282;-80
2023/03/24 09:34:39;;;;;;;6.97;2.10;;;23.90;99.90;;;;;;5038206;28;20224;-80
2023/03/24 09:37:12;;;;;;;5.07;1.70;;;23.90;99.90;;;;;;5033110;28;20611;-81
2023/03/24 09:39:44;;;;;;;5.45;2.20;;;23.90;99.90;;;;;;5030915;28;20204;-80
2023/03/24 09:42:22;;;;;;;6.10;2.03;;;23.90;99.90;;;;;;5030805;28;20691;-80
2023/03/24 09:44:57;;;;;;;5.88;1.90;;;23.90;99.90;;;;;;5028994;28;20200;-80
2023/03/24 09:47:31;;;;;;;5.32;1.83;;;23.90;99.90;;;;;;5029433;28;20211;-80
2023/03/24 09:50:08;;;;;;;5.32;1.70;;;23.90;99.90;;;;;;5030628;28;20207;-81
2023/03/24 09:52:45;;;;;;;5.30;1.88;;;23.80;99.90;;;;;;5023098;28;20201;-80
2023/03/24 09:55:22;;;;;;;3.88;1.77;;;23.80;99.90;;;;;;5029999;28;20201;-81
2023/03/24 09:57:57;;;;;;;6.60;1.77;;;23.80;99.90;;;;;;5030144;28;20201;-81
2023/03/24 10:00:46;;;;;;;5.88;2.00;;;23.80;99.90;;;;;;5032669;28;20200;-81
2023/03/24 10:03:24;;;;;;;5.30;2.00;;;23.80;99.90;;;;;;5023978;28;20664;-80
2023/03/24 10:06:00;;;;;;;4.45;1.75;;;23.80;99.90;;;;;;5025582;28;20204;-81
2023/03/24 10:08:38;;;;;;;3.42;1.73;;;23.80;99.90;;;;;;5028539;28;20205;-80
2023/03/24 10:11:15;;;;;;;4.88;1.95;;;23.70;99.90;;;;;;5030057;28;20197;-80
2023/03/24 10:14:02;;;;;;;4.55;2.05;;;23.70;99.90;;;;;;5030397;28;20209;-79
2023/03/24 10:16:38;;;;;;;6.47;2.17;;;23.70;99.90;;;;;;5028755;28;20275;-81
2023/03/24 10:19:27;;;;;;;5.70;1.73;;;23.70;99.90;;;;;;5024822;28;20193;-80
2023/03/24 10:22:08;;;;;;;3.78;1.77;;;23.70;99.90;;;;;;5029765;28;20239;-80
2023/03/24 10:24:50;;;;;;;5.88;1.73;;;23.70;99.90;;;;;;5014952;28;20684;-80
2023/03/24 10:27:27;;;;;;;4.45;1.50;;;23.70;99.90;;;;;;5032403;28;20198;-79
2023/03/24 10:30:03;;;;;;;4.97;1.52;;;23.70;99.90;;;;;;5034594;28;20255;-80
2023/03/24 10:32:37;;;;;;;5.88;1.58;;;23.70;99.90;;;;;;5034625;28;20644;-81
2023/03/24 10:35:15;;;;;;;7.10;1.75;;;23.70;99.90;;;;;;5034883;28;20229;-79
2023/03/24 10:37:46;;;;;;;3.50;1.40;;;23.70;99.90;;;;;;5031821;28;20212;-80
2023/03/24 10:40:22;;;;;;;5.93;1.80;;;23.70;99.90;;;;;;5031997;28;20231;-80
2023/03/24 10:42:54;;;;;;;4.10;1.33;;;23.70;99.90;;;;;;5034600;28;20212;-80
2023/03/24 10:45:35;;;;;;;5.72;1.30;;;23.60;99.90;;;;;;5033620;28;20201;-80
2023/03/24 10:48:08;;;;;;;4.63;1.77;;;23.60;99.90;;;;;;5033216;28;20259;-81
2023/03/24 10:50:42;;;;;;;5.15;1.48;;;23.60;99.90;;;;;;5033687;28;20194;-79
2023/03/24 10:53:19;;;;;;;3.85;1.50;;;23.60;99.90;;;;;;5034593;28;20192;-80
2023/03/24 10:55:53;;;;;;;5.50;1.50;;;23.70;99.90;;;;;;5028859;28;20228;-80
2023/03/24 10:58:31;;;;;;;4.15;1.33;;;23.60;99.90;;;;;;5034053;28;20198;-81
2023/03/24 11:01:03;;;;;;;3.30;1.30;;;23.60;99.90;;;;;;5032774;28;20220;-81
2023/03/24 11:03:36;;;;;;;3.90;1.40;;;23.60;99.90;;;;;;5019814;28;20197;-80
2023/03/24 11:06:08;;;;;;;3.20;1.23;;;23.60;99.90;;;;;;5023292;28;20190;-80
2023/03/24 11:08:40;;;;;;;4.15;1.65;;;23.60;99.90;;;;;;5019703;28;20200;-80
2023/03/24 11:11:32;;;;;;;3.70;1.50;;;23.60;99.90;;;;;;5032034;28;20280;-80
2023/03/24 11:14:05;;;;;;;4.40;1.50;;;23.50;99.90;;;;;;5019148;28;20221;-81
2023/03/24 11:16:39;;;;;;;3.95;1.52;;;23.60;99.90;;;;;;5033465;28;20197;-79
2023/03/24 11:19:26;;;;;;;5.68;1.42;;;23.50;99.90;;;;;;5033227;28;20204;-80
2023/03/24 11:22:04;;;;;;;5.68;1.58;;;23.50;99.90;;;;;;5033194;28;20205;-80
2023/03/24 11:24:39;;;;;;;2.35;1.15;;;23.60;99.90;;;;;;5032088;28;20228;-79
2023/03/24 11:27:17;;;;;;;4.22;1.50;;;23.60;99.90;;;;;;5032903;28;20197;-80
2023/03/24 11:29:53;;;;;;;4.03;1.55;;;23.60;99.90;;;;;;5032421;28;20239;-78
2023/03/24 11:32:28;;;;;;;3.10;1.50;;;23.50;99.90;;;;;;5035113;28;20201;-80
2023/03/24 11:35:07;;;;;;;5.10;1.45;;;23.50;99.90;;;;;;5042470;28;20225;-80
2023/03/24 11:37:40;;;;;;;2.83;1.15;;;23.50;99.90;;;;;;5032176;28;20209;-80
2023/03/24 11:40:28;;;;;;;4.60;1.48;;;23.50;99.90;;;;;;5031558;28;20287;-81
2023/03/24 11:43:04;;;;;;;2.95;1.35;;;23.50;99.90;;;;;;5033286;28;20724;-82
2023/03/24 11:45:42;;;;;;;4.00;1.25;;;23.50;99.90;;;;;;5032440;28;20205;-82
2023/03/24 11:48:23;;;;;;;4.70;1.35;;;23.40;99.90;;;;;;5031751;28;20215;-81
2023/03/24 11:50:57;;;;;;;3.65;1.40;;;23.50;99.90;;;;;;5032901;28;20201;-80
2023/03/24 11:53:32;;;;;;;1.65;1.10;;;23.50;99.90;;;;;;5031833;28;20209;-83
2023/03/24 11:56:09;;;;;;;2.63;1.17;;;23.50;99.90;;;;;;5031759;28;20197;-82
2023/03/24 11:58:47;;;;;;;3.17;1.17;;;23.40;99.90;;;;;;5032407;28;20200;-82
2023/03/24 12:01:28;;;;;;;4.88;1.55;;;23.40;99.90;;;;;;5031143;28;20789;-81
2023/03/24 12:04:15;;;;;;;3.50;1.17;;;23.40;99.90;;;;;;5030387;28;20193;-82
2023/03/24 12:07:05;;;;;;;3.13;1.17;;;23.40;99.90;;;;;;5031489;28;20229;-82
2023/03/24 12:09:47;;;;;;;3.50;1.20;;;23.40;99.90;;;;;;5032037;28;20288;-82
2023/03/24 12:12:27;;;;;;;3.42;1.13;;;23.40;99.90;;;;;;5032739;28;20232;-81
2023/03/24 12:15:22;;;;;;;3.13;1.40;;;23.50;99.90;;;;;;5031964;28;20225;-81
2023/03/24 12:18:00;;;;;;;3.30;1.17;;;23.50;99.90;;;;;;5031850;28;20492;-80
2023/03/24 12:20:36;;;;;;;3.47;1.25;;;23.40;99.90;;;;;;5031800;28;20198;-80
2023/03/24 12:23:13;;;;;;;2.97;0.95;;;23.40;99.90;;;;;;5031573;28;20200;-80
2023/03/24 12:26:02;;;;;;;2.78;1.00;;;23.40;99.90;;;;;;5024056;28;20202;-81
2023/03/24 12:28:48;;;;;;;3.08;1.00;;;23.40;99.90;;;;;;5013302;28;20206;-80
2023/03/24 12:31:50;;;;;;;2.55;1.10;;;23.40;99.90;;;;;;5018494;28;20308;-80
2023/03/24 12:34:44;;;;;;;3.78;1.20;;;23.40;99.90;;;;;;5048731;28;20238;-80
2023/03/24 12:37:26;;;;;;;2.33;1.10;;;23.40;99.90;;;;;;5042322;28;20576;-81
2023/03/24 12:40:11;;;;;;;3.72;1.10;;;23.50;99.90;;;;;;5031347;28;20687;-81
2023/03/24 12:42:43;;;;;;;3.67;1.23;;;23.50;99.90;;;;;;5026702;28;20197;-81
2023/03/24 12:45:37;;;;;;;3.15;1.00;;;23.50;99.90;;;;;;5032100;28;20197;-80
2023/03/24 12:48:47;;;;;;;2.75;1.20;;;23.50;99.90;;;;;;5031464;28;20677;-81
2023/03/24 12:51:31;;;;;;;3.55;1.10;;;23.50;99.90;;;;;;5020791;28;20236;-81
2023/03/24 12:54:13;;;;;;;2.88;0.88;;;23.50;99.90;;;;;;5032990;28;20229;-82
2023/03/24 12:56:52;;;;;;;4.25;1.30;;;23.40;99.90;;;;;;5005397;28;20264;-81
2023/03/24 12:59:28;;;;;;;2.97;1.10;;;23.40;99.90;;;;;;5031620;28;20200;-78
2023/03/24 13:02:05;;;;;;;2.42;1.00;;;23.50;99.90;;;;;;5032151;28;20215;-81
2023/03/24 13:04:41;;;;;;;4.13;0.90;;;23.50;99.90;;;;;;5026682;28;20558;-81
2023/03/24 13:07:15;;;;;;;3.22;1.20;;;23.50;99.90;;;;;;5035473;28;20271;-81
2023/03/24 13:09:52;;;;;;;2.50;1.10;;;23.50;99.90;;;;;;5028253;28;20205;-80
2023/03/24 13:12:25;;;;;;;5.30;1.20;;;23.50;99.90;;;;;;5031111;28;20740;-82
2023/03/24 13:15:04;;;;;;;3.22;1.20;;;23.50;99.90;;;;;;5033912;28;20232;-81
2023/03/24 13:17:46;;;;;;;2.63;1.00;;;23.50;99.90;;;;;;5033267;28;20197;-82
2023/03/24 13:20:28;;;;;;;4.85;1.10;;;23.50;99.90;;;;;;5035956;28;20203;-81
2023/03/24 13:23:01;;;;;;;3.97;1.02;;;23.60;99.90;;;;;;5034254;28;20197;-81
2023/03/24 13:25:48;;;;;;;4.03;1.35;;;23.50;99.90;;;;;;5033477;28;20659;-82
2023/03/24 13:28:26;;;;;;;5.72;1.20;;;23.60;99.90;;;;;;5032089;28;20200;-81
2023/03/24 13:31:00;;;;;;;2.67;0.95;;;23.60;99.90;;;;;;5034429;28;20197;-81
2023/03/24 13:33:35;;;;;;;3.25;1.10;;;23.60;99.90;;;;;;5039190;28;20192;-81
2023/03/24 13:36:26;;;;;;;2.50;1.02;;;23.60;99.90;;;;;;5037215;28;20216;-80